sensor_id;sensor_type;location;lat;lon;timestamp;P1;durP1;ratioP1;P2;durP2;ratioP2
68910;SDS011;55953;51.650;-0.522;2023-06-01T00:00:25;11.50;;;4.20;;
68910;SDS011;55953;51.650;-0.522;2023-06-01T00:03:13;7.40;;;4.20;;
68910;SDS011;55953;51.650;-0.522;2023-06-01T00:05:41;8.70;;;3.80;;
68910;SDS011;55953;51.650;-0.522;2023-06-01T00:08:09;7.80;;;4.30;;
68910;SDS011;55953;51.650;-0.522;2023-06-01T00:10:37;6.70;;;3.70;;
68910;SDS011;55953;51.650;-0.522;2023-06-01T00:13:05;7.00;;;4.00;;
68910;SDS011;55953;51.650;-0.522;2023-06-01T00:15:33;8.40;;;3.90;;
68910;SDS011;55953;51.650;-0.522;2023-06-01T00:18:01;9.20;;;4.60;;
68910;SDS011;55953;51.650;-0.522;2023-06-01T00:20:29;8.70;;;3.90;;
68910;SDS011;55953;51.650;-0.522;2023-06-01T00:23:00;6.40;;;3.70;;
68910;SDS011;55953;51.650;-0.522;2023-06-01T00:25:28;7.70;;;4.20;;
68910;SDS011;55953;51.650;-0.522;2023-06-01T00:27:56;8.60;;;3.80;;
68910;SDS011;55953;51.650;-0.522;2023-06-01T00:30:23;8.10;;;3.90;;
68910;SDS011;55953;51.650;-0.522;2023-06-01T00:32:51;8.40;;;3.70;;
68910;SDS011;55953;51.650;-0.522;2023-06-01T00:35:19;6.10;;;3.90;;
68910;SDS011;55953;51.650;-0.522;2023-06-01T00:37:47;8.30;;;3.80;;
68910;SDS011;55953;51.650;-0.522;2023-06-01T00:40:15;6.20;;;3.90;;
68910;SDS011;55953;51.650;-0.522;2023-06-01T00:42:44;8.00;;;4.20;;
68910;SDS011;55953;51.650;-0.522;2023-06-01T00:45:12;8.50;;;4.30;;
68910;SDS011;55953;51.650;-0.522;2023-06-01T00:47:41;6.70;;;4.10;;
68910;SDS011;55953;51.650;-0.522;2023-06-01T00:50:11;9.20;;;4.00;;
68910;SDS011;55953;51.650;-0.522;2023-06-01T00:52:40;9.60;;;4.00;;
68910;SDS011;55953;51.650;-0.522;2023-06-01T00:55:10;8.10;;;4.40;;
68910;SDS011;55953;51.650;-0.522;2023-06-01T00:57:38;9.60;;;4.10;;
68910;SDS011;55953;51.650;-0.522;2023-06-01T01:00:08;9.00;;;4.20;;
68910;SDS011;55953;51.650;-0.522;2023-06-01T01:02:42;8.70;;;4.40;;
68910;SDS011;55953;51.650;-0.522;2023-06-01T01:05:12;9.50;;;4.40;;
68910;SDS011;55953;51.650;-0.522;2023-06-01T01:13:16;7.30;;;4.20;;
68910;SDS011;55953;51.650;-0.522;2023-06-01T01:16:00;9.40;;;4.70;;
68910;SDS011;55953;51.650;-0.522;2023-06-01T01:18:46;10.50;;;4.50;;
68910;SDS011;55953;51.650;-0.522;2023-06-01T01:21:42;8.30;;;4.20;;
68910;SDS011;55953;51.650;-0.522;2023-06-01T01:27:31;8.20;;;4.30;;
68910;SDS011;55953;51.650;-0.522;2023-06-01T01:30:11;8.30;;;4.10;;
68910;SDS011;55953;51.650;-0.522;2023-06-01T01:32:40;9.20;;;4.10;;
68910;SDS011;55953;51.650;-0.522;2023-06-01T01:35:10;9.10;;;4.00;;
68910;SDS011;55953;51.650;-0.522;2023-06-01T01:37:50;8.20;;;4.60;;
68910;SDS011;55953;51.650;-0.522;2023-06-01T01:40:19;9.30;;;4.50;;
68910;SDS011;55953;51.650;-0.522;2023-06-01T01:42:48;7.50;;;4.90;;
68910;SDS011;55953;51.650;-0.522;2023-06-01T01:45:18;9.90;;;4.10;;
68910;SDS011;55953;51.650;-0.522;2023-06-01T01:47:58;10.80;;;4.40;;
68910;SDS011;55953;51.650;-0.522;2023-06-01T01:50:37;10.00;;;4.00;;
68910;SDS011;55953;51.650;-0.522;2023-06-01T01:53:22;10.60;;;4.10;;
68910;SDS011;55953;51.650;-0.522;2023-06-01T01:55:55;8.90;;;4.30;;
68910;SDS011;55953;51.650;-0.522;2023-06-01T01:58:24;8.00;;;3.70;;
68910;SDS011;55953;51.650;-0.522;2023-06-01T02:00:54;9.80;;;4.30;;
68910;SDS011;55953;51.650;-0.522;2023-06-01T02:03:23;10.70;;;4.70;;
68910;SDS011;55953;51.650;-0.522;2023-06-01T02:05:51;10.30;;;4.40;;
68910;SDS011;55953;51.650;-0.522;2023-06-01T02:08:19;10.40;;;4.60;;
68910;SDS011;55953;51.650;-0.522;2023-06-01T02:10:47;9.60;;;4.10;;
68910;SDS011;55953;51.650;-0.522;2023-06-01T02:13:15;10.40;;;4.40;;
68910;SDS011;55953;51.650;-0.522;2023-06-01T02:15:43;8.50;;;4.40;;
68910;SDS011;55953;51.650;-0.522;2023-06-01T02:18:11;10.10;;;4.40;;
68910;SDS011;55953;51.650;-0.522;2023-06-01T02:20:39;8.80;;;4.90;;
68910;SDS011;55953;51.650;-0.522;2023-06-01T02:23:08;7.90;;;4.50;;
68910;SDS011;55953;51.650;-0.522;2023-06-01T02:25:37;8.70;;;4.30;;
68910;SDS011;55953;51.650;-0.522;2023-06-01T02:28:05;8.00;;;4.30;;
68910;SDS011;55953;51.650;-0.522;2023-06-01T02:30:34;8.30;;;4.00;;
68910;SDS011;55953;51.650;-0.522;2023-06-01T02:33:03;8.90;;;4.00;;
68910;SDS011;55953;51.650;-0.522;2023-06-01T02:35:31;12.20;;;4.50;;
68910;SDS011;55953;51.650;-0.522;2023-06-01T02:37:58;9.80;;;4.20;;
68910;SDS011;55953;51.650;-0.522;2023-06-01T02:40:27;8.80;;;4.60;;
68910;SDS011;55953;51.650;-0.522;2023-06-01T02:42:55;10.30;;;4.50;;
68910;SDS011;55953;51.650;-0.522;2023-06-01T02:45:23;11.50;;;4.90;;
68910;SDS011;55953;51.650;-0.522;2023-06-01T02:47:51;8.80;;;4.10;;
68910;SDS011;55953;51.650;-0.522;2023-06-01T02:50:19;10.40;;;4.90;;
68910;SDS011;55953;51.650;-0.522;2023-06-01T02:52:48;9.20;;;4.90;;
68910;SDS011;55953;51.650;-0.522;2023-06-01T02:55:16;12.00;;;4.30;;
68910;SDS011;55953;51.650;-0.522;2023-06-01T02:58:10;11.50;;;4.60;;
68910;SDS011;55953;51.650;-0.522;2023-06-01T03:01:07;10.70;;;4.90;;
68910;SDS011;55953;51.650;-0.522;2023-06-01T03:03:39;11.60;;;4.70;;
68910;SDS011;55953;51.650;-0.522;2023-06-01T03:06:09;7.90;;;4.50;;
68910;SDS011;55953;51.650;-0.522;2023-06-01T03:08:58;9.70;;;4.50;;
68910;SDS011;55953;51.650;-0.522;2023-06-01T03:11:55;9.70;;;4.80;;
68910;SDS011;55953;51.650;-0.522;2023-06-01T03:14:23;13.60;;;5.10;;
68910;SDS011;55953;51.650;-0.522;2023-06-01T03:16:51;9.50;;;5.10;;
68910;SDS011;55953;51.650;-0.522;2023-06-01T03:19:21;8.60;;;4.30;;
68910;SDS011;55953;51.650;-0.522;2023-06-01T03:21:51;10.40;;;5.10;;
68910;SDS011;55953;51.650;-0.522;2023-06-01T03:24:21;11.90;;;5.30;;
68910;SDS011;55953;51.650;-0.522;2023-06-01T03:26:50;12.90;;;5.80;;
68910;SDS011;55953;51.650;-0.522;2023-06-01T03:29:18;10.40;;;5.20;;
68910;SDS011;55953;51.650;-0.522;2023-06-01T03:31:46;11.00;;;5.60;;
68910;SDS011;55953;51.650;-0.522;2023-06-01T03:34:15;12.30;;;5.70;;
68910;SDS011;55953;51.650;-0.522;2023-06-01T03:36:43;11.90;;;5.20;;
68910;SDS011;55953;51.650;-0.522;2023-06-01T03:39:15;10.60;;;4.80;;
68910;SDS011;55953;51.650;-0.522;2023-06-01T03:41:44;9.00;;;4.70;;
68910;SDS011;55953;51.650;-0.522;2023-06-01T03:44:12;10.80;;;5.20;;
68910;SDS011;55953;51.650;-0.522;2023-06-01T03:46:40;10.00;;;4.80;;
68910;SDS011;55953;51.650;-0.522;2023-06-01T03:49:08;9.30;;;5.00;;
68910;SDS011;55953;51.650;-0.522;2023-06-01T03:51:37;11.70;;;5.30;;
68910;SDS011;55953;51.650;-0.522;2023-06-01T03:54:04;10.40;;;4.90;;
68910;SDS011;55953;51.650;-0.522;2023-06-01T03:56:32;10.70;;;4.50;;
68910;SDS011;55953;51.650;-0.522;2023-06-01T03:59:02;8.90;;;4.30;;
68910;SDS011;55953;51.650;-0.522;2023-06-01T04:01:30;14.00;;;5.30;;
68910;SDS011;55953;51.650;-0.522;2023-06-01T04:03:58;8.60;;;4.30;;
68910;SDS011;55953;51.650;-0.522;2023-06-01T04:06:26;10.30;;;4.80;;
68910;SDS011;55953;51.650;-0.522;2023-06-01T04:08:57;10.40;;;4.90;;
68910;SDS011;55953;51.650;-0.522;2023-06-01T04:11:28;9.30;;;4.60;;
68910;SDS011;55953;51.650;-0.522;2023-06-01T04:13:56;9.60;;;4.50;;
68910;SDS011;55953;51.650;-0.522;2023-06-01T04:16:24;9.20;;;4.80;;
68910;SDS011;55953;51.650;-0.522;2023-06-01T04:18:52;10.50;;;5.00;;
68910;SDS011;55953;51.650;-0.522;2023-06-01T04:21:23;10.10;;;4.40;;
68910;SDS011;55953;51.650;-0.522;2023-06-01T04:23:55;10.90;;;4.70;;
68910;SDS011;55953;51.650;-0.522;2023-06-01T04:26:24;8.70;;;4.20;;
68910;SDS011;55953;51.650;-0.522;2023-06-01T04:28:55;8.80;;;4.30;;
68910;SDS011;55953;51.650;-0.522;2023-06-01T04:31:24;9.00;;;4.30;;
68910;SDS011;55953;51.650;-0.522;2023-06-01T04:33:52;10.30;;;4.40;;
68910;SDS011;55953;51.650;-0.522;2023-06-01T04:36:23;7.50;;;4.10;;
68910;SDS011;55953;51.650;-0.522;2023-06-01T04:38:57;13.20;;;4.60;;
68910;SDS011;55953;51.650;-0.522;2023-06-01T04:41:26;9.90;;;4.50;;
68910;SDS011;55953;51.650;-0.522;2023-06-01T04:43:53;10.60;;;4.60;;
68910;SDS011;55953;51.650;-0.522;2023-06-01T04:46:25;9.70;;;4.30;;
68910;SDS011;55953;51.650;-0.522;2023-06-01T04:48:57;10.70;;;4.80;;
68910;SDS011;55953;51.650;-0.522;2023-06-01T04:51:28;10.20;;;4.60;;
68910;SDS011;55953;51.650;-0.522;2023-06-01T04:53:56;9.40;;;4.80;;
68910;SDS011;55953;51.650;-0.522;2023-06-01T04:56:25;9.10;;;4.30;;
68910;SDS011;55953;51.650;-0.522;2023-06-01T05:01:26;10.70;;;4.30;;
68910;SDS011;55953;51.650;-0.522;2023-06-01T05:03:57;9.70;;;4.50;;
68910;SDS011;55953;51.650;-0.522;2023-06-01T05:06:26;7.80;;;4.40;;
68910;SDS011;55953;51.650;-0.522;2023-06-01T05:08:55;8.90;;;4.40;;
68910;SDS011;55953;51.650;-0.522;2023-06-01T05:11:23;7.00;;;3.50;;
68910;SDS011;55953;51.650;-0.522;2023-06-01T05:13:51;7.40;;;4.10;;
68910;SDS011;55953;51.650;-0.522;2023-06-01T05:16:20;10.30;;;4.30;;
68910;SDS011;55953;51.650;-0.522;2023-06-01T05:18:49;6.90;;;4.00;;
68910;SDS011;55953;51.650;-0.522;2023-06-01T05:21:18;8.80;;;3.80;;
68910;SDS011;55953;51.650;-0.522;2023-06-01T05:23:47;9.00;;;3.60;;
68910;SDS011;55953;51.650;-0.522;2023-06-01T05:26:14;6.90;;;3.90;;
68910;SDS011;55953;51.650;-0.522;2023-06-01T05:28:42;8.20;;;3.70;;
68910;SDS011;55953;51.650;-0.522;2023-06-01T05:31:12;9.90;;;3.80;;
68910;SDS011;55953;51.650;-0.522;2023-06-01T05:33:46;8.90;;;3.50;;
68910;SDS011;55953;51.650;-0.522;2023-06-01T05:36:17;7.10;;;3.60;;
68910;SDS011;55953;51.650;-0.522;2023-06-01T05:38:45;8.50;;;3.90;;
68910;SDS011;55953;51.650;-0.522;2023-06-01T05:41:14;8.40;;;4.10;;
68910;SDS011;55953;51.650;-0.522;2023-06-01T05:43:42;8.80;;;3.50;;
68910;SDS011;55953;51.650;-0.522;2023-06-01T05:46:10;8.00;;;3.70;;
68910;SDS011;55953;51.650;-0.522;2023-06-01T05:48:39;7.10;;;3.70;;
68910;SDS011;55953;51.650;-0.522;2023-06-01T05:51:08;7.30;;;3.60;;
68910;SDS011;55953;51.650;-0.522;2023-06-01T05:53:37;7.30;;;3.60;;
68910;SDS011;55953;51.650;-0.522;2023-06-01T05:56:06;8.40;;;3.70;;
68910;SDS011;55953;51.650;-0.522;2023-06-01T05:58:34;7.60;;;3.70;;
68910;SDS011;55953;51.650;-0.522;2023-06-01T06:01:02;7.50;;;3.40;;
68910;SDS011;55953;51.650;-0.522;2023-06-01T06:03:31;6.20;;;3.20;;
68910;SDS011;55953;51.650;-0.522;2023-06-01T06:06:00;6.60;;;3.30;;
68910;SDS011;55953;51.650;-0.522;2023-06-01T06:08:28;9.30;;;3.60;;
68910;SDS011;55953;51.650;-0.522;2023-06-01T06:10:57;6.00;;;2.90;;
68910;SDS011;55953;51.650;-0.522;2023-06-01T06:13:25;8.10;;;3.00;;
68910;SDS011;55953;51.650;-0.522;2023-06-01T06:15:53;5.70;;;2.90;;
68910;SDS011;55953;51.650;-0.522;2023-06-01T06:18:22;8.30;;;3.10;;
68910;SDS011;55953;51.650;-0.522;2023-06-01T06:20:50;6.40;;;2.80;;
68910;SDS011;55953;51.650;-0.522;2023-06-01T06:23:18;7.90;;;2.90;;
68910;SDS011;55953;51.650;-0.522;2023-06-01T06:25:46;6.20;;;2.50;;
68910;SDS011;55953;51.650;-0.522;2023-06-01T06:28:16;4.80;;;2.60;;
68910;SDS011;55953;51.650;-0.522;2023-06-01T06:30:44;6.80;;;2.80;;
68910;SDS011;55953;51.650;-0.522;2023-06-01T06:33:12;8.20;;;3.00;;
68910;SDS011;55953;51.650;-0.522;2023-06-01T06:35:42;4.60;;;2.70;;
68910;SDS011;55953;51.650;-0.522;2023-06-01T06:38:11;5.40;;;3.10;;
68910;SDS011;55953;51.650;-0.522;2023-06-01T06:40:40;5.30;;;2.70;;
68910;SDS011;55953;51.650;-0.522;2023-06-01T06:43:08;6.40;;;3.00;;
68910;SDS011;55953;51.650;-0.522;2023-06-01T06:45:36;6.40;;;3.00;;
68910;SDS011;55953;51.650;-0.522;2023-06-01T06:48:04;6.30;;;3.30;;
68910;SDS011;55953;51.650;-0.522;2023-06-01T06:50:33;6.00;;;3.40;;
68910;SDS011;55953;51.650;-0.522;2023-06-01T06:53:01;6.20;;;2.70;;
68910;SDS011;55953;51.650;-0.522;2023-06-01T06:55:29;8.30;;;2.90;;
68910;SDS011;55953;51.650;-0.522;2023-06-01T06:57:57;9.40;;;3.10;;
68910;SDS011;55953;51.650;-0.522;2023-06-01T07:00:25;7.30;;;2.70;;
68910;SDS011;55953;51.650;-0.522;2023-06-01T07:02:54;5.40;;;3.00;;
68910;SDS011;55953;51.650;-0.522;2023-06-01T07:05:23;5.60;;;3.00;;
68910;SDS011;55953;51.650;-0.522;2023-06-01T07:07:51;6.80;;;3.10;;
68910;SDS011;55953;51.650;-0.522;2023-06-01T07:10:18;5.90;;;3.10;;
68910;SDS011;55953;51.650;-0.522;2023-06-01T07:12:47;9.00;;;3.10;;
68910;SDS011;55953;51.650;-0.522;2023-06-01T07:15:15;7.00;;;3.00;;
68910;SDS011;55953;51.650;-0.522;2023-06-01T07:17:44;11.60;;;3.90;;
68910;SDS011;55953;51.650;-0.522;2023-06-01T07:20:12;6.60;;;2.80;;
68910;SDS011;55953;51.650;-0.522;2023-06-01T07:22:40;6.90;;;3.30;;
68910;SDS011;55953;51.650;-0.522;2023-06-01T07:25:09;6.10;;;3.10;;
68910;SDS011;55953;51.650;-0.522;2023-06-01T07:27:39;8.10;;;3.30;;
68910;SDS011;55953;51.650;-0.522;2023-06-01T07:30:11;6.30;;;3.10;;
68910;SDS011;55953;51.650;-0.522;2023-06-01T07:32:40;5.60;;;2.80;;
68910;SDS011;55953;51.650;-0.522;2023-06-01T07:35:08;5.20;;;2.80;;
68910;SDS011;55953;51.650;-0.522;2023-06-01T07:37:37;5.20;;;3.30;;
68910;SDS011;55953;51.650;-0.522;2023-06-01T07:40:05;4.40;;;3.00;;
68910;SDS011;55953;51.650;-0.522;2023-06-01T07:42:35;7.70;;;3.60;;
68910;SDS011;55953;51.650;-0.522;2023-06-01T07:45:03;7.80;;;3.90;;
68910;SDS011;55953;51.650;-0.522;2023-06-01T07:47:33;8.70;;;3.60;;
68910;SDS011;55953;51.650;-0.522;2023-06-01T07:50:01;8.20;;;3.40;;
68910;SDS011;55953;51.650;-0.522;2023-06-01T07:52:29;7.80;;;3.30;;
68910;SDS011;55953;51.650;-0.522;2023-06-01T07:54:58;6.80;;;3.80;;
68910;SDS011;55953;51.650;-0.522;2023-06-01T07:57:26;7.00;;;3.50;;
68910;SDS011;55953;51.650;-0.522;2023-06-01T07:59:54;6.80;;;3.10;;
68910;SDS011;55953;51.650;-0.522;2023-06-01T08:02:22;8.70;;;3.60;;
68910;SDS011;55953;51.650;-0.522;2023-06-01T08:04:50;7.20;;;3.10;;
68910;SDS011;55953;51.650;-0.522;2023-06-01T08:07:18;5.70;;;3.20;;
68910;SDS011;55953;51.650;-0.522;2023-06-01T08:09:47;12.40;;;3.60;;
68910;SDS011;55953;51.650;-0.522;2023-06-01T08:12:15;6.00;;;3.20;;
68910;SDS011;55953;51.650;-0.522;2023-06-01T08:14:42;7.30;;;3.50;;
68910;SDS011;55953;51.650;-0.522;2023-06-01T08:17:12;8.10;;;3.70;;
68910;SDS011;55953;51.650;-0.522;2023-06-01T08:19:41;7.00;;;3.50;;
68910;SDS011;55953;51.650;-0.522;2023-06-01T08:22:11;9.10;;;3.50;;
68910;SDS011;55953;51.650;-0.522;2023-06-01T08:24:40;6.60;;;3.30;;
68910;SDS011;55953;51.650;-0.522;2023-06-01T08:27:18;7.50;;;3.40;;
68910;SDS011;55953;51.650;-0.522;2023-06-01T08:29:52;7.00;;;3.20;;
68910;SDS011;55953;51.650;-0.522;2023-06-01T08:32:22;7.70;;;3.60;;
68910;SDS011;55953;51.650;-0.522;2023-06-01T08:34:50;6.00;;;3.40;;
68910;SDS011;55953;51.650;-0.522;2023-06-01T08:37:18;6.60;;;3.40;;
68910;SDS011;55953;51.650;-0.522;2023-06-01T08:39:46;6.10;;;3.30;;
68910;SDS011;55953;51.650;-0.522;2023-06-01T08:42:29;5.50;;;3.40;;
68910;SDS011;55953;51.650;-0.522;2023-06-01T08:45:04;8.40;;;3.50;;
68910;SDS011;55953;51.650;-0.522;2023-06-01T08:50:05;6.20;;;3.10;;
68910;SDS011;55953;51.650;-0.522;2023-06-01T08:52:34;7.30;;;3.30;;
68910;SDS011;55953;51.650;-0.522;2023-06-01T08:55:04;7.00;;;3.00;;
68910;SDS011;55953;51.650;-0.522;2023-06-01T08:57:33;7.10;;;3.50;;
68910;SDS011;55953;51.650;-0.522;2023-06-01T09:00:01;7.50;;;3.50;;
68910;SDS011;55953;51.650;-0.522;2023-06-01T09:02:29;8.00;;;3.60;;
68910;SDS011;55953;51.650;-0.522;2023-06-01T09:04:57;7.60;;;3.50;;
68910;SDS011;55953;51.650;-0.522;2023-06-01T09:07:26;9.10;;;3.60;;
68910;SDS011;55953;51.650;-0.522;2023-06-01T09:09:55;8.30;;;4.10;;
68910;SDS011;55953;51.650;-0.522;2023-06-01T09:12:25;6.70;;;3.70;;
68910;SDS011;55953;51.650;-0.522;2023-06-01T09:15:08;6.60;;;3.90;;
68910;SDS011;55953;51.650;-0.522;2023-06-01T09:17:40;6.20;;;3.90;;
68910;SDS011;55953;51.650;-0.522;2023-06-01T09:20:13;8.50;;;4.30;;
68910;SDS011;55953;51.650;-0.522;2023-06-01T09:22:44;9.40;;;4.20;;
68910;SDS011;55953;51.650;-0.522;2023-06-01T09:25:14;7.00;;;3.80;;
68910;SDS011;55953;51.650;-0.522;2023-06-01T09:27:50;4.90;;;3.60;;
68910;SDS011;55953;51.650;-0.522;2023-06-01T09:30:21;6.50;;;3.60;;
68910;SDS011;55953;51.650;-0.522;2023-06-01T09:33:07;9.30;;;4.00;;
68910;SDS011;55953;51.650;-0.522;2023-06-01T09:35:39;8.90;;;4.20;;
68910;SDS011;55953;51.650;-0.522;2023-06-01T09:38:09;7.80;;;3.90;;
68910;SDS011;55953;51.650;-0.522;2023-06-01T09:40:39;7.90;;;3.80;;
68910;SDS011;55953;51.650;-0.522;2023-06-01T09:43:20;8.00;;;3.80;;
68910;SDS011;55953;51.650;-0.522;2023-06-01T09:46:09;6.50;;;4.00;;
68910;SDS011;55953;51.650;-0.522;2023-06-01T09:48:41;10.50;;;4.20;;
68910;SDS011;55953;51.650;-0.522;2023-06-01T09:51:24;8.30;;;4.20;;
68910;SDS011;55953;51.650;-0.522;2023-06-01T09:53:57;7.10;;;3.60;;
68910;SDS011;55953;51.650;-0.522;2023-06-01T09:56:25;7.80;;;4.00;;
68910;SDS011;55953;51.650;-0.522;2023-06-01T09:58:58;9.10;;;4.00;;
68910;SDS011;55953;51.650;-0.522;2023-06-01T10:01:29;8.50;;;4.10;;
68910;SDS011;55953;51.650;-0.522;2023-06-01T10:04:00;6.00;;;3.90;;
68910;SDS011;55953;51.650;-0.522;2023-06-01T10:06:31;7.90;;;4.40;;
68910;SDS011;55953;51.650;-0.522;2023-06-01T10:09:03;7.90;;;4.00;;
68910;SDS011;55953;51.650;-0.522;2023-06-01T10:11:40;7.00;;;4.20;;
68910;SDS011;55953;51.650;-0.522;2023-06-01T10:14:09;6.40;;;3.90;;
68910;SDS011;55953;51.650;-0.522;2023-06-01T10:16:38;8.00;;;4.20;;
68910;SDS011;55953;51.650;-0.522;2023-06-01T10:19:09;7.90;;;3.90;;
68910;SDS011;55953;51.650;-0.522;2023-06-01T10:21:38;7.80;;;4.40;;
68910;SDS011;55953;51.650;-0.522;2023-06-01T10:24:10;8.00;;;4.00;;
68910;SDS011;55953;51.650;-0.522;2023-06-01T10:27:04;7.10;;;3.60;;
68910;SDS011;55953;51.650;-0.522;2023-06-01T10:29:38;8.60;;;4.10;;
68910;SDS011;55953;51.650;-0.522;2023-06-01T10:38:23;9.20;;;4.80;;
68910;SDS011;55953;51.650;-0.522;2023-06-01T10:40:51;7.90;;;4.50;;
68910;SDS011;55953;51.650;-0.522;2023-06-01T10:49:08;7.60;;;4.10;;
68910;SDS011;55953;51.650;-0.522;2023-06-01T10:51:36;8.60;;;4.50;;
68910;SDS011;55953;51.650;-0.522;2023-06-01T10:54:24;8.30;;;4.60;;
68910;SDS011;55953;51.650;-0.522;2023-06-01T10:57:25;7.30;;;4.40;;
68910;SDS011;55953;51.650;-0.522;2023-06-01T11:02:58;7.90;;;4.50;;
68910;SDS011;55953;51.650;-0.522;2023-06-01T11:05:44;8.00;;;4.90;;
68910;SDS011;55953;51.650;-0.522;2023-06-01T11:13:24;7.90;;;4.30;;
68910;SDS011;55953;51.650;-0.522;2023-06-01T11:19:06;8.10;;;4.50;;
68910;SDS011;55953;51.650;-0.522;2023-06-01T11:21:38;7.60;;;4.70;;
68910;SDS011;55953;51.650;-0.522;2023-06-01T11:24:15;8.20;;;4.60;;
68910;SDS011;55953;51.650;-0.522;2023-06-01T11:26:46;8.70;;;4.80;;
68910;SDS011;55953;51.650;-0.522;2023-06-01T11:29:23;8.90;;;4.70;;
68910;SDS011;55953;51.650;-0.522;2023-06-01T11:31:55;7.00;;;4.30;;
68910;SDS011;55953;51.650;-0.522;2023-06-01T11:34:31;7.90;;;4.20;;
68910;SDS011;55953;51.650;-0.522;2023-06-01T11:37:12;9.50;;;4.80;;
68910;SDS011;55953;51.650;-0.522;2023-06-01T11:39:42;9.90;;;4.60;;
68910;SDS011;55953;51.650;-0.522;2023-06-01T11:42:11;6.70;;;4.50;;
68910;SDS011;55953;51.650;-0.522;2023-06-01T11:44:58;7.60;;;4.50;;
68910;SDS011;55953;51.650;-0.522;2023-06-01T11:47:28;8.40;;;5.10;;
68910;SDS011;55953;51.650;-0.522;2023-06-01T11:49:57;8.80;;;4.80;;
68910;SDS011;55953;51.650;-0.522;2023-06-01T11:52:25;8.50;;;4.70;;
68910;SDS011;55953;51.650;-0.522;2023-06-01T11:55:01;9.30;;;5.30;;
68910;SDS011;55953;51.650;-0.522;2023-06-01T11:57:30;8.70;;;5.00;;
68910;SDS011;55953;51.650;-0.522;2023-06-01T11:59:58;10.00;;;4.90;;
68910;SDS011;55953;51.650;-0.522;2023-06-01T12:02:28;10.30;;;5.10;;
68910;SDS011;55953;51.650;-0.522;2023-06-01T12:05:05;10.10;;;5.40;;
68910;SDS011;55953;51.650;-0.522;2023-06-01T12:08:02;7.10;;;4.80;;
68910;SDS011;55953;51.650;-0.522;2023-06-01T12:10:31;7.40;;;5.10;;
68910;SDS011;55953;51.650;-0.522;2023-06-01T12:13:00;9.50;;;5.10;;
68910;SDS011;55953;51.650;-0.522;2023-06-01T12:15:28;7.80;;;4.80;;
68910;SDS011;55953;51.650;-0.522;2023-06-01T12:17:56;7.70;;;4.90;;
68910;SDS011;55953;51.650;-0.522;2023-06-01T12:25:55;8.80;;;5.40;;
68910;SDS011;55953;51.650;-0.522;2023-06-01T12:28:26;9.50;;;5.30;;
68910;SDS011;55953;51.650;-0.522;2023-06-01T12:33:42;8.90;;;5.60;;
68910;SDS011;55953;51.650;-0.522;2023-06-01T12:36:34;11.30;;;6.60;;
68910;SDS011;55953;51.650;-0.522;2023-06-01T12:39:04;9.30;;;5.80;;
68910;SDS011;55953;51.650;-0.522;2023-06-01T12:41:33;12.20;;;6.70;;
68910;SDS011;55953;51.650;-0.522;2023-06-01T12:44:01;9.60;;;5.80;;
68910;SDS011;55953;51.650;-0.522;2023-06-01T12:46:30;11.30;;;6.50;;
68910;SDS011;55953;51.650;-0.522;2023-06-01T12:49:14;8.90;;;6.20;;
68910;SDS011;55953;51.650;-0.522;2023-06-01T12:51:45;12.00;;;6.80;;
68910;SDS011;55953;51.650;-0.522;2023-06-01T12:54:13;10.00;;;6.80;;
68910;SDS011;55953;51.650;-0.522;2023-06-01T12:56:41;11.80;;;6.10;;
68910;SDS011;55953;51.650;-0.522;2023-06-01T12:59:10;9.20;;;5.80;;
68910;SDS011;55953;51.650;-0.522;2023-06-01T13:01:38;9.40;;;5.60;;
68910;SDS011;55953;51.650;-0.522;2023-06-01T13:04:07;10.90;;;6.80;;
68910;SDS011;55953;51.650;-0.522;2023-06-01T13:06:36;11.90;;;7.50;;
68910;SDS011;55953;51.650;-0.522;2023-06-01T13:09:05;16.50;;;7.70;;
68910;SDS011;55953;51.650;-0.522;2023-06-01T13:11:34;13.40;;;7.50;;
68910;SDS011;55953;51.650;-0.522;2023-06-01T13:14:02;10.80;;;6.80;;
68910;SDS011;55953;51.650;-0.522;2023-06-01T13:16:30;11.50;;;6.70;;
68910;SDS011;55953;51.650;-0.522;2023-06-01T13:18:58;16.20;;;7.50;;
68910;SDS011;55953;51.650;-0.522;2023-06-01T13:21:26;10.70;;;6.50;;
68910;SDS011;55953;51.650;-0.522;2023-06-01T13:23:54;13.10;;;7.50;;
68910;SDS011;55953;51.650;-0.522;2023-06-01T13:26:22;12.30;;;7.50;;
68910;SDS011;55953;51.650;-0.522;2023-06-01T13:28:52;13.00;;;7.70;;
68910;SDS011;55953;51.650;-0.522;2023-06-01T13:31:20;11.40;;;6.40;;
68910;SDS011;55953;51.650;-0.522;2023-06-01T13:33:50;12.60;;;7.50;;
68910;SDS011;55953;51.650;-0.522;2023-06-01T13:36:18;15.50;;;7.50;;
68910;SDS011;55953;51.650;-0.522;2023-06-01T13:38:46;11.70;;;6.70;;
68910;SDS011;55953;51.650;-0.522;2023-06-01T13:41:14;11.20;;;6.70;;
68910;SDS011;55953;51.650;-0.522;2023-06-01T13:43:42;13.50;;;6.90;;
68910;SDS011;55953;51.650;-0.522;2023-06-01T13:46:10;11.00;;;6.70;;
68910;SDS011;55953;51.650;-0.522;2023-06-01T13:48:38;13.50;;;6.90;;
68910;SDS011;55953;51.650;-0.522;2023-06-01T13:51:06;12.10;;;6.30;;
68910;SDS011;55953;51.650;-0.522;2023-06-01T13:53:34;11.50;;;7.00;;
68910;SDS011;55953;51.650;-0.522;2023-06-01T13:56:02;11.40;;;6.80;;
68910;SDS011;55953;51.650;-0.522;2023-06-01T13:58:31;11.80;;;6.80;;
68910;SDS011;55953;51.650;-0.522;2023-06-01T14:01:01;12.30;;;6.90;;
68910;SDS011;55953;51.650;-0.522;2023-06-01T14:03:30;14.30;;;7.10;;
68910;SDS011;55953;51.650;-0.522;2023-06-01T14:05:58;12.60;;;6.80;;
68910;SDS011;55953;51.650;-0.522;2023-06-01T14:08:26;10.70;;;6.60;;
68910;SDS011;55953;51.650;-0.522;2023-06-01T14:10:53;11.70;;;7.10;;
68910;SDS011;55953;51.650;-0.522;2023-06-01T14:13:21;12.60;;;6.10;;
68910;SDS011;55953;51.650;-0.522;2023-06-01T14:15:49;11.40;;;6.80;;
68910;SDS011;55953;51.650;-0.522;2023-06-01T14:18:17;13.70;;;7.20;;
68910;SDS011;55953;51.650;-0.522;2023-06-01T14:20:45;11.10;;;6.80;;
68910;SDS011;55953;51.650;-0.522;2023-06-01T14:23:13;10.90;;;7.20;;
68910;SDS011;55953;51.650;-0.522;2023-06-01T14:25:42;13.90;;;7.10;;
68910;SDS011;55953;51.650;-0.522;2023-06-01T14:28:10;13.50;;;7.00;;
68910;SDS011;55953;51.650;-0.522;2023-06-01T14:30:38;11.90;;;6.90;;
68910;SDS011;55953;51.650;-0.522;2023-06-01T14:33:07;11.70;;;7.00;;
68910;SDS011;55953;51.650;-0.522;2023-06-01T14:35:35;13.40;;;7.80;;
68910;SDS011;55953;51.650;-0.522;2023-06-01T14:38:03;13.70;;;7.90;;
68910;SDS011;55953;51.650;-0.522;2023-06-01T14:40:31;14.60;;;7.80;;
68910;SDS011;55953;51.650;-0.522;2023-06-01T14:42:58;14.60;;;7.50;;
68910;SDS011;55953;51.650;-0.522;2023-06-01T14:45:26;13.60;;;7.20;;
68910;SDS011;55953;51.650;-0.522;2023-06-01T14:47:54;14.40;;;7.80;;
68910;SDS011;55953;51.650;-0.522;2023-06-01T14:50:22;11.60;;;6.70;;
68910;SDS011;55953;51.650;-0.522;2023-06-01T14:52:50;12.60;;;7.30;;
68910;SDS011;55953;51.650;-0.522;2023-06-01T14:55:18;10.90;;;7.20;;
68910;SDS011;55953;51.650;-0.522;2023-06-01T14:57:46;11.50;;;7.50;;
68910;SDS011;55953;51.650;-0.522;2023-06-01T15:00:15;13.60;;;8.20;;
68910;SDS011;55953;51.650;-0.522;2023-06-01T15:02:44;13.60;;;7.50;;
68910;SDS011;55953;51.650;-0.522;2023-06-01T15:05:13;14.30;;;7.40;;
68910;SDS011;55953;51.650;-0.522;2023-06-01T15:07:41;12.80;;;7.10;;
68910;SDS011;55953;51.650;-0.522;2023-06-01T15:10:10;14.00;;;7.90;;
68910;SDS011;55953;51.650;-0.522;2023-06-01T15:12:38;14.20;;;7.90;;
68910;SDS011;55953;51.650;-0.522;2023-06-01T15:15:06;11.60;;;7.80;;
68910;SDS011;55953;51.650;-0.522;2023-06-01T15:17:34;15.80;;;7.30;;
68910;SDS011;55953;51.650;-0.522;2023-06-01T15:20:03;13.50;;;7.70;;
68910;SDS011;55953;51.650;-0.522;2023-06-01T15:22:31;13.10;;;7.60;;
68910;SDS011;55953;51.650;-0.522;2023-06-01T15:25:00;15.60;;;7.80;;
68910;SDS011;55953;51.650;-0.522;2023-06-01T15:27:28;13.00;;;7.20;;
68910;SDS011;55953;51.650;-0.522;2023-06-01T15:29:56;15.20;;;7.80;;
68910;SDS011;55953;51.650;-0.522;2023-06-01T15:32:24;15.90;;;8.10;;
68910;SDS011;55953;51.650;-0.522;2023-06-01T15:34:52;12.40;;;7.30;;